sensor_id;sensor_type;location;lat;lon;timestamp;temperature;humidity
25112;DHT22;13092;51.996;4.458;2023-09-08T00:01:21;22.60;99.90
25112;DHT22;13092;51.996;4.458;2023-09-08T00:03:49;22.60;99.90
25112;DHT22;13092;51.996;4.458;2023-09-08T00:06:18;22.60;99.90
25112;DHT22;13092;51.996;4.458;2023-09-08T00:08:46;22.60;99.90
25112;DHT22;13092;51.996;4.458;2023-09-08T00:11:14;22.60;99.90
25112;DHT22;13092;51.996;4.458;2023-09-08T00:13:44;22.60;99.90
25112;DHT22;13092;51.996;4.458;2023-09-08T00:16:13;22.60;99.90
25112;DHT22;13092;51.996;4.458;2023-09-08T00:18:41;22.60;99.90
25112;DHT22;13092;51.996;4.458;2023-09-08T00:21:10;22.60;99.90
25112;DHT22;13092;51.996;4.458;2023-09-08T00:23:38;22.50;99.90
25112;DHT22;13092;51.996;4.458;2023-09-08T00:26:07;22.50;99.90
25112;DHT22;13092;51.996;4.458;2023-09-08T00:28:35;22.50;99.90
25112;DHT22;13092;51.996;4.458;2023-09-08T00:31:08;22.50;99.90
25112;DHT22;13092;51.996;4.458;2023-09-08T00:33:36;22.40;99.90
25112;DHT22;13092;51.996;4.458;2023-09-08T00:36:05;22.40;99.90
25112;DHT22;13092;51.996;4.458;2023-09-08T00:38:34;22.30;99.90
25112;DHT22;13092;51.996;4.458;2023-09-08T00:41:04;22.30;99.90
25112;DHT22;13092;51.996;4.458;2023-09-08T00:43:33;22.30;99.90
25112;DHT22;13092;51.996;4.458;2023-09-08T00:46:02;22.20;99.90
25112;DHT22;13092;51.996;4.458;2023-09-08T00:48:34;22.20;99.90
25112;DHT22;13092;51.996;4.458;2023-09-08T00:51:06;22.20;99.90
25112;DHT22;13092;51.996;4.458;2023-09-08T00:53:34;22.20;99.90
25112;DHT22;13092;51.996;4.458;2023-09-08T00:56:06;22.20;99.90
25112;DHT22;13092;51.996;4.458;2023-09-08T00:58:35;22.10;99.90
25112;DHT22;13092;51.996;4.458;2023-09-08T01:01:04;22.10;99.90
25112;DHT22;13092;51.996;4.458;2023-09-08T01:03:35;22.10;99.90
25112;DHT22;13092;51.996;4.458;2023-09-08T01:06:06;22.10;99.90
25112;DHT22;13092;51.996;4.458;2023-09-08T01:08:35;22.10;99.90
25112;DHT22;13092;51.996;4.458;2023-09-08T01:11:06;22.10;99.90
25112;DHT22;13092;51.996;4.458;2023-09-08T01:13:35;22.10;99.90
25112;DHT22;13092;51.996;4.458;2023-09-08T01:16:06;22.10;99.90
25112;DHT22;13092;51.996;4.458;2023-09-08T01:18:36;22.00;99.90
25112;DHT22;13092;51.996;4.458;2023-09-08T01:21:25;22.00;99.90
25112;DHT22;13092;51.996;4.458;2023-09-08T01:24:17;22.00;99.90
25112;DHT22;13092;51.996;4.458;2023-09-08T01:27:14;21.90;99.90
25112;DHT22;13092;51.996;4.458;2023-09-08T01:29:48;22.00;99.90
25112;DHT22;13092;51.996;4.458;2023-09-08T01:32:17;21.90;99.90
25112;DHT22;13092;51.996;4.458;2023-09-08T01:34:46;21.80;99.90
25112;DHT22;13092;51.996;4.458;2023-09-08T01:37:15;21.70;99.90
25112;DHT22;13092;51.996;4.458;2023-09-08T01:39:43;21.90;99.90
25112;DHT22;13092;51.996;4.458;2023-09-08T01:42:11;21.70;99.90
25112;DHT22;13092;51.996;4.458;2023-09-08T01:44:41;21.90;99.90
25112;DHT22;13092;51.996;4.458;2023-09-08T01:47:09;21.90;99.90
25112;DHT22;13092;51.996;4.458;2023-09-08T01:49:38;21.70;99.90
25112;DHT22;13092;51.996;4.458;2023-09-08T01:52:06;21.70;99.90
25112;DHT22;13092;51.996;4.458;2023-09-08T01:54:35;21.70;99.90
25112;DHT22;13092;51.996;4.458;2023-09-08T01:57:06;21.70;99.90
25112;DHT22;13092;51.996;4.458;2023-09-08T01:59:34;21.70;99.90
25112;DHT22;13092;51.996;4.458;2023-09-08T02:02:05;21.60;99.90
25112;DHT22;13092;51.996;4.458;2023-09-08T02:04:44;21.60;99.90
25112;DHT22;13092;51.996;4.458;2023-09-08T02:07:39;21.60;99.90
25112;DHT22;13092;51.996;4.458;2023-09-08T02:10:09;21.50;99.90
25112;DHT22;13092;51.996;4.458;2023-09-08T02:12:37;21.50;99.90
25112;DHT22;13092;51.996;4.458;2023-09-08T02:15:07;21.50;99.90
25112;DHT22;13092;51.996;4.458;2023-09-08T02:17:37;21.50;99.90
25112;DHT22;13092;51.996;4.458;2023-09-08T02:20:06;21.40;99.90
25112;DHT22;13092;51.996;4.458;2023-09-08T02:22:34;21.40;99.90
25112;DHT22;13092;51.996;4.458;2023-09-08T02:25:06;21.40;99.90
25112;DHT22;13092;51.996;4.458;2023-09-08T02:27:35;21.20;99.90
25112;DHT22;13092;51.996;4.458;2023-09-08T02:30:07;21.40;99.90
25112;DHT22;13092;51.996;4.458;2023-09-08T02:32:37;21.30;99.90
25112;DHT22;13092;51.996;4.458;2023-09-08T02:35:07;21.20;99.90
25112;DHT22;13092;51.996;4.458;2023-09-08T02:37:37;21.20;99.90
25112;DHT22;13092;51.996;4.458;2023-09-08T02:40:06;21.20;99.90
25112;DHT22;13092;51.996;4.458;2023-09-08T02:42:34;21.20;99.90
25112;DHT22;13092;51.996;4.458;2023-09-08T02:45:07;21.30;99.90
25112;DHT22;13092;51.996;4.458;2023-09-08T03:15:42;21.00;99.90
25112;DHT22;13092;51.996;4.458;2023-09-08T03:41:25;20.70;99.90
25112;DHT22;13092;51.996;4.458;2023-09-08T03:45:29;20.70;99.90
25112;DHT22;13092;51.996;4.458;2023-09-08T03:48:36;20.60;99.90
25112;DHT22;13092;51.996;4.458;2023-09-08T03:52:02;20.60;99.90
25112;DHT22;13092;51.996;4.458;2023-09-08T04:07:56;20.60;99.90
25112;DHT22;13092;51.996;4.458;2023-09-08T04:11:14;20.60;99.90
25112;DHT22;13092;51.996;4.458;2023-09-08T04:14:57;20.60;99.90
25112;DHT22;13092;51.996;4.458;2023-09-08T04:22:05;20.50;99.90
25112;DHT22;13092;51.996;4.458;2023-09-08T04:34:48;20.50;99.90
25112;DHT22;13092;51.996;4.458;2023-09-08T04:39:15;20.50;99.90
25112;DHT22;13092;51.996;4.458;2023-09-08T04:41:55;20.40;99.90
25112;DHT22;13092;51.996;4.458;2023-09-08T04:47:50;20.40;99.90
25112;DHT22;13092;51.996;4.458;2023-09-08T04:51:27;20.40;99.90
25112;DHT22;13092;51.996;4.458;2023-09-08T04:54:55;20.40;99.90
25112;DHT22;13092;51.996;4.458;2023-09-08T05:01:02;20.40;99.90
25112;DHT22;13092;51.996;4.458;2023-09-08T05:37:37;20.00;99.90
25112;DHT22;13092;51.996;4.458;2023-09-08T05:40:28;20.00;99.90
25112;DHT22;13092;51.996;4.458;2023-09-08T05:43:30;20.10;99.90
25112;DHT22;13092;51.996;4.458;2023-09-08T05:46:30;20.00;99.90
25112;DHT22;13092;51.996;4.458;2023-09-08T05:49:11;19.90;99.90
25112;DHT22;13092;51.996;4.458;2023-09-08T05:52:16;20.10;99.90
25112;DHT22;13092;51.996;4.458;2023-09-08T06:50:27;21.20;99.90
25112;DHT22;13092;51.996;4.458;2023-09-08T06:59:42;21.30;99.90
25112;DHT22;13092;51.996;4.458;2023-09-08T07:30:06;22.00;99.90
25112;DHT22;13092;51.996;4.458;2023-09-08T07:32:57;22.20;99.90
25112;DHT22;13092;51.996;4.458;2023-09-08T07:37:25;22.20;99.90
25112;DHT22;13092;51.996;4.458;2023-09-08T08:23:29;23.50;99.90
25112;DHT22;13092;51.996;4.458;2023-09-08T08:38:52;24.00;99.90
25112;DHT22;13092;51.996;4.458;2023-09-08T08:42:09;24.10;99.90
25112;DHT22;13092;51.996;4.458;2023-09-08T08:49:13;24.30;99.90
25112;DHT22;13092;51.996;4.458;2023-09-08T11:27:13;31.40;99.90
25112;DHT22;13092;51.996;4.458;2023-09-08T11:29:46;31.50;99.90
25112;DHT22;13092;51.996;4.458;2023-09-08T11:32:17;31.60;99.90
25112;DHT22;13092;51.996;4.458;2023-09-08T11:34:49;31.60;99.90
25112;DHT22;13092;51.996;4.458;2023-09-08T11:37:22;31.60;99.90
25112;DHT22;13092;51.996;4.458;2023-09-08T11:39:54;31.50;99.90
25112;DHT22;13092;51.996;4.458;2023-09-08T11:42:25;31.40;99.90
25112;DHT22;13092;51.996;4.458;2023-09-08T11:45:20;31.50;99.90
25112;DHT22;13092;51.996;4.458;2023-09-08T11:48:36;31.50;99.90
25112;DHT22;13092;51.996;4.458;2023-09-08T11:52:12;31.50;99.90
25112;DHT22;13092;51.996;4.458;2023-09-08T15:18:21;32.70;99.90
25112;DHT22;13092;51.996;4.458;2023-09-08T15:20:53;32.70;99.90
25112;DHT22;13092;51.996;4.458;2023-09-08T15:23:22;32.70;99.90
25112;DHT22;13092;51.996;4.458;2023-09-08T15:25:53;32.70;99.90
25112;DHT22;13092;51.996;4.458;2023-09-08T15:28:22;32.70;99.90
25112;DHT22;13092;51.996;4.458;2023-09-08T15:30:52;32.80;99.90
25112;DHT22;13092;51.996;4.458;2023-09-08T16:25:42;32.50;99.90
25112;DHT22;13092;51.996;4.458;2023-09-08T16:28:10;32.50;99.90
25112;DHT22;13092;51.996;4.458;2023-09-08T16:30:38;32.40;99.90
25112;DHT22;13092;51.996;4.458;2023-09-08T16:33:06;32.20;99.90
25112;DHT22;13092;51.996;4.458;2023-09-08T16:35:35;32.00;99.90
25112;DHT22;13092;51.996;4.458;2023-09-08T16:38:04;31.90;99.90
25112;DHT22;13092;51.996;4.458;2023-09-08T16:40:33;31.70;99.90
25112;DHT22;13092;51.996;4.458;2023-09-08T16:43:02;31.60;99.90
25112;DHT22;13092;51.996;4.458;2023-09-08T16:45:32;31.40;99.90
25112;DHT22;13092;51.996;4.458;2023-09-08T16:48:00;31.30;99.90
25112;DHT22;13092;51.996;4.458;2023-09-08T16:50:28;31.20;99.90
25112;DHT22;13092;51.996;4.458;2023-09-08T16:52:56;31.20;99.90
25112;DHT22;13092;51.996;4.458;2023-09-08T16:55:24;31.00;99.90
25112;DHT22;13092;51.996;4.458;2023-09-08T16:57:52;30.70;99.90
25112;DHT22;13092;51.996;4.458;2023-09-08T17:00:22;30.50;99.90
25112;DHT22;13092;51.996;4.458;2023-09-08T17:02:51;30.30;99.90
25112;DHT22;13092;51.996;4.458;2023-09-08T17:05:19;30.00;99.90
25112;DHT22;13092;51.996;4.458;2023-09-08T17:07:47;29.90;99.90
25112;DHT22;13092;51.996;4.458;2023-09-08T17:10:15;29.70;99.90
25112;DHT22;13092;51.996;4.458;2023-09-08T17:12:43;29.70;99.90
25112;DHT22;13092;51.996;4.458;2023-09-08T17:15:11;29.60;99.90
25112;DHT22;13092;51.996;4.458;2023-09-08T17:17:41;29.50;99.90
25112;DHT22;13092;51.996;4.458;2023-09-08T17:20:10;29.40;99.90
25112;DHT22;13092;51.996;4.458;2023-09-08T17:32:37;29.00;99.90
25112;DHT22;13092;51.996;4.458;2023-09-08T17:40:03;28.70;99.90
25112;DHT22;13092;51.996;4.458;2023-09-08T17:46:49;28.60;99.90
25112;DHT22;13092;51.996;4.458;2023-09-08T17:53:44;28.10;99.90
25112;DHT22;13092;51.996;4.458;2023-09-08T18:00:06;28.20;99.90
25112;DHT22;13092;51.996;4.458;2023-09-08T18:08:20;28.00;99.90
25112;DHT22;13092;51.996;4.458;2023-09-08T18:28:22;27.50;99.90
25112;DHT22;13092;51.996;4.458;2023-09-08T18:47:55;27.00;99.90
25112;DHT22;13092;51.996;4.458;2023-09-08T18:51:19;26.90;99.90
25112;DHT22;13092;51.996;4.458;2023-09-08T18:57:41;26.60;99.90
25112;DHT22;13092;51.996;4.458;2023-09-08T19:26:43;26.20;99.90
25112;DHT22;13092;51.996;4.458;2023-09-08T19:30:22;26.10;99.90
25112;DHT22;13092;51.996;4.458;2023-09-08T19:33:06;26.10;99.90
25112;DHT22;13092;51.996;4.458;2023-09-08T19:36:33;26.00;99.90
25112;DHT22;13092;51.996;4.458;2023-09-08T19:39:56;26.00;99.90
25112;DHT22;13092;51.996;4.458;2023-09-08T19:43:48;25.70;99.90
25112;DHT22;13092;51.996;4.458;2023-09-08T19:47:07;25.70;99.90
25112;DHT22;13092;51.996;4.458;2023-09-08T19:50:18;25.50;99.90
25112;DHT22;13092;51.996;4.458;2023-09-08T20:05:26;25.10;99.90
25112;DHT22;13092;51.996;4.458;2023-09-08T20:15:30;24.90;99.90
25112;DHT22;13092;51.996;4.458;2023-09-08T20:18:49;25.00;99.90
25112;DHT22;13092;51.996;4.458;2023-09-08T20:25:36;24.90;99.90
25112;DHT22;13092;51.996;4.458;2023-09-08T20:47:22;24.60;99.90
25112;DHT22;13092;51.996;4.458;2023-09-08T20:49:59;24.50;99.90
25112;DHT22;13092;51.996;4.458;2023-09-08T20:56:27;24.30;99.90
25112;DHT22;13092;51.996;4.458;2023-09-08T21:00:01;24.20;99.90
25112;DHT22;13092;51.996;4.458;2023-09-08T21:10:33;24.00;99.90
25112;DHT22;13092;51.996;4.458;2023-09-08T21:14:00;24.00;99.90
25112;DHT22;13092;51.996;4.458;2023-09-08T21:17:25;24.00;99.90
25112;DHT22;13092;51.996;4.458;2023-09-08T21:49:16;23.70;99.90
25112;DHT22;13092;51.996;4.458;2023-09-08T22:23:43;23.20;99.90
25112;DHT22;13092;51.996;4.458;2023-09-08T22:30:56;23.10;99.90
25112;DHT22;13092;51.996;4.458;2023-09-08T22:44:29;22.90;99.90
25112;DHT22;13092;51.996;4.458;2023-09-08T22:47:42;22.80;99.90
25112;DHT22;13092;51.996;4.458;2023-09-08T22:58:17;22.80;99.90
25112;DHT22;13092;51.996;4.458;2023-09-08T23:05:21;22.60;99.90
25112;DHT22;13092;51.996;4.458;2023-09-08T23:08:18;22.50;99.90
25112;DHT22;13092;51.996;4.458;2023-09-08T23:11:34;22.50;99.90
25112;DHT22;13092;51.996;4.458;2023-09-08T23:20:43;22.40;99.90
25112;DHT22;13092;51.996;4.458;2023-09-08T23:28:23;22.20;99.90
25112;DHT22;13092;51.996;4.458;2023-09-08T23:30:56;22.10;99.90
25112;DHT22;13092;51.996;4.458;2023-09-08T23:37:36;21.80;99.90
